Time;durP1;ratioP1;P1;durP2;ratioP2;P2;SDS_P1;SDS_P2;PMS_P1;PMS_P2;Temp;Humidity;BMP_temperature;BMP_pressure;BME280_temperature;BME280_humidity;BME280_pressure;Samples;Min_cycle;Max_cycle;Signal;HPM_P1;HPM_P2
2020/12/24 00:00:50;;;;;;;5.97;1.60;;;10.10;99.90;;;;;;5012986;28;20134;-68
2020/12/24 00:03:19;;;;;;;8.32;1.55;;;10.10;99.90;;;;;;5012705;28;20057;-68
2020/12/24 00:05:46;;;;;;;5.93;1.60;;;10.10;99.90;;;;;;5013018;28;20097;-68
2020/12/24 00:08:13;;;;;;;7.38;1.67;;;10.00;99.90;;;;;;5013483;28;20081;-68
2020/12/24 00:10:39;;;;;;;4.22;1.90;;;10.00;99.90;;;;;;5016765;28;20050;-68
2020/12/24 00:13:08;;;;;;;4.57;1.30;;;10.00;99.90;;;;;;5016754;28;20147;-68
2020/12/24 00:15:36;;;;;;;5.13;1.80;;;9.90;99.90;;;;;;5016763;28;20057;-68
2020/12/24 00:18:02;;;;;;;5.43;1.70;;;9.80;99.90;;;;;;5016844;28;20050;-68
2020/12/24 00:20:29;;;;;;;5.82;1.58;;;9.80;99.90;;;;;;5011055;28;20491;-68
2020/12/24 00:22:56;;;;;;;6.20;1.50;;;9.70;99.90;;;;;;5015788;28;20046;-68
2020/12/24 00:25:22;;;;;;;5.15;1.80;;;9.70;99.90;;;;;;5015589;28;20097;-68
2020/12/24 00:27:49;;;;;;;4.32;1.30;;;9.70;99.90;;;;;;5016159;28;20050;-68
2020/12/24 00:30:15;;;;;;;9.85;2.13;;;9.70;99.90;;;;;;5016521;28;20084;-68
2020/12/24 00:32:43;;;;;;;6.55;1.42;;;9.70;99.90;;;;;;5016702;28;20132;-68
2020/12/24 00:35:09;;;;;;;5.82;1.33;;;9.60;99.90;;;;;;5016731;28;20459;-68
2020/12/24 00:37:36;;;;;;;5.25;1.45;;;9.60;99.90;;;;;;5016466;28;20085;-68
2020/12/24 00:40:03;;;;;;;6.25;1.60;;;9.60;99.90;;;;;;5015787;28;20104;-68
2020/12/24 00:42:30;;;;;;;5.90;1.92;;;9.60;99.90;;;;;;5015912;28;20503;-68
2020/12/24 00:44:58;;;;;;;5.25;1.60;;;9.70;99.90;;;;;;5016570;28;20057;-68
2020/12/24 00:47:24;;;;;;;7.30;1.52;;;9.70;99.90;;;;;;5016561;28;20078;-68
2020/12/24 00:49:53;;;;;;;5.95;1.70;;;9.70;99.90;;;;;;5016543;28;20085;-69
2020/12/24 00:52:20;;;;;;;6.63;1.73;;;9.70;99.90;;;;;;5016170;28;20050;-68
2020/12/24 00:54:47;;;;;;;8.32;1.98;;;9.70;99.90;;;;;;5016137;28;20046;-68
2020/12/24 00:57:13;;;;;;;7.35;1.58;;;9.70;99.90;;;;;;5015796;28;20050;-68
2020/12/24 00:59:40;;;;;;;7.80;1.65;;;9.70;99.90;;;;;;5015862;28;20483;-68
2020/12/24 01:02:06;;;;;;;6.90;1.48;;;9.70;99.90;;;;;;5015262;28;20057;-68
2020/12/24 01:04:33;;;;;;;6.40;1.63;;;9.60;99.90;;;;;;5015578;28;20046;-68
2020/12/24 01:07:01;;;;;;;8.77;2.42;;;9.70;99.90;;;;;;5015818;28;20045;-68
2020/12/24 01:09:27;;;;;;;6.20;1.73;;;9.70;99.90;;;;;;5015641;28;20058;-68
2020/12/24 01:11:54;;;;;;;6.32;1.77;;;9.70;99.90;;;;;;5015533;28;20436;-68
2020/12/24 01:14:21;;;;;;;5.97;1.77;;;9.60;99.90;;;;;;5014990;28;20061;-68
2020/12/24 01:16:47;;;;;;;8.52;1.98;;;9.60;99.90;;;;;;5015631;28;20105;-68
2020/12/24 01:19:14;;;;;;;8.38;1.85;;;9.60;99.90;;;;;;5015511;28;20403;-68
2020/12/24 01:21:46;;;;;;;4.88;1.20;;;9.70;99.90;;;;;;5014524;28;20077;-68
2020/12/24 01:24:16;;;;;;;6.65;2.15;;;9.70;99.90;;;;;;5014791;28;20045;-68
2020/12/24 01:26:48;;;;;;;7.03;1.65;;;9.70;99.90;;;;;;5015909;28;20061;-68
2020/12/24 01:29:16;;;;;;;7.05;1.67;;;9.70;99.90;;;;;;5015364;28;20056;-68
2020/12/24 01:31:45;;;;;;;6.18;1.55;;;9.80;99.90;;;;;;5015206;28;20089;-68
2020/12/24 01:34:12;;;;;;;5.85;1.63;;;9.80;99.90;;;;;;5015273;28;20132;-68
2020/12/24 01:36:39;;;;;;;6.25;1.77;;;9.80;99.90;;;;;;5015269;28;20505;-68
2020/12/24 01:39:06;;;;;;;6.43;1.58;;;9.80;99.90;;;;;;5014749;28;20493;-68
2020/12/24 01:41:33;;;;;;;9.57;1.60;;;9.70;99.90;;;;;;5015126;28;20390;-68
2020/12/24 01:44:02;;;;;;;8.98;1.83;;;9.60;99.90;;;;;;5015100;28;20076;-68
2020/12/24 01:46:29;;;;;;;3.77;1.10;;;9.60;99.90;;;;;;5015162;28;20061;-68
2020/12/24 01:48:55;;;;;;;8.73;1.50;;;9.40;99.90;;;;;;5015156;28;20081;-68
2020/12/24 01:51:26;;;;;;;6.60;1.23;;;9.30;99.90;;;;;;5014930;28;20478;-68
2020/12/24 01:53:55;;;;;;;7.28;1.50;;;9.30;99.90;;;;;;5014399;28;20061;-68
2020/12/24 01:56:22;;;;;;;8.25;1.70;;;9.30;99.90;;;;;;5014664;28;20064;-68
2020/12/24 01:58:50;;;;;;;13.85;2.17;;;9.30;99.90;;;;;;5014685;28;20136;-68
2020/12/24 02:01:17;;;;;;;8.20;1.65;;;9.20;99.90;;;;;;5014900;28;20487;-68
2020/12/24 02:03:44;;;;;;;7.90;1.42;;;9.20;99.90;;;;;;5014794;28;20403;-68
2020/12/24 02:06:11;;;;;;;7.90;1.70;;;9.20;99.90;;;;;;5014746;28;20474;-68
2020/12/24 02:08:38;;;;;;;3.25;1.30;;;9.10;99.90;;;;;;5014318;28;20474;-68
2020/12/24 02:11:05;;;;;;;7.93;2.03;;;9.00;99.90;;;;;;5014666;28;20085;-68
2020/12/24 02:13:31;;;;;;;7.95;1.70;;;9.00;99.90;;;;;;5014617;28;20388;-68
2020/12/24 02:15:58;;;;;;;6.97;1.48;;;9.00;99.90;;;;;;5014633;28;20081;-68
2020/12/24 02:18:25;;;;;;;7.25;1.60;;;8.90;99.90;;;;;;5014845;28;20104;-68
2020/12/24 02:20:53;;;;;;;9.88;1.92;;;8.90;99.90;;;;;;5014983;28;20085;-68
2020/12/24 02:23:20;;;;;;;6.00;1.30;;;8.90;99.90;;;;;;5013813;28;20050;-68
2020/12/24 02:25:46;;;;;;;6.72;1.23;;;8.90;99.90;;;;;;5014613;28;20097;-68
2020/12/24 02:28:13;;;;;;;9.57;2.75;;;8.80;99.90;;;;;;5014398;28;20050;-68
2020/12/24 02:30:40;;;;;;;9.02;1.80;;;8.90;99.90;;;;;;5014381;28;20085;-68
2020/12/24 02:33:06;;;;;;;7.53;1.80;;;8.90;99.90;;;;;;5013685;28;20567;-68
2020/12/24 02:35:33;;;;;;;8.32;1.92;;;8.90;99.90;;;;;;5014256;28;20511;-68
2020/12/24 02:38:01;;;;;;;7.65;2.00;;;9.00;99.90;;;;;;5014290;28;20107;-68
2020/12/24 02:40:28;;;;;;;6.45;1.73;;;9.00;99.90;;;;;;4994284;28;20065;-68
2020/12/24 02:42:54;;;;;;;7.60;1.42;;;9.10;99.90;;;;;;4994494;28;20089;-68
2020/12/24 02:45:21;;;;;;;14.77;2.50;;;9.10;99.90;;;;;;4994421;28;20062;-68
2020/12/24 02:47:48;;;;;;;6.40;1.40;;;9.20;99.90;;;;;;4994926;28;20054;-68
2020/12/24 02:50:14;;;;;;;7.50;1.70;;;9.30;99.90;;;;;;4994034;28;20061;-68
2020/12/24 02:52:41;;;;;;;4.93;1.50;;;9.40;99.90;;;;;;4994406;28;20089;-68
2020/12/24 02:55:08;;;;;;;7.78;1.65;;;9.40;99.90;;;;;;5013248;28;20053;-68
2020/12/24 02:57:35;;;;;;;5.95;2.08;;;9.50;99.90;;;;;;5013913;28;20061;-68
2020/12/24 03:00:04;;;;;;;6.65;1.30;;;9.40;99.90;;;;;;5013861;28;20053;-68
2020/12/24 03:02:31;;;;;;;10.07;2.20;;;9.40;99.90;;;;;;5012519;28;20073;-68
2020/12/24 03:04:57;;;;;;;5.85;1.65;;;9.50;99.90;;;;;;5013379;28;20081;-68
2020/12/24 03:07:24;;;;;;;8.98;2.15;;;9.50;99.90;;;;;;5013903;28;20050;-68
2020/12/24 03:09:50;;;;;;;6.43;1.50;;;9.50;99.90;;;;;;5013502;28;20054;-68
2020/12/24 03:12:18;;;;;;;7.80;1.65;;;9.50;99.90;;;;;;5013936;28;20050;-68
2020/12/24 03:14:44;;;;;;;7.47;1.45;;;9.50;99.90;;;;;;5013853;28;20050;-68
2020/12/24 03:17:10;;;;;;;10.73;2.20;;;9.50;99.90;;;;;;5013675;28;20085;-68
2020/12/24 03:19:37;;;;;;;8.07;2.00;;;9.40;99.90;;;;;;5013441;28;20046;-68
2020/12/24 03:22:04;;;;;;;4.30;1.60;;;9.40;99.90;;;;;;5013459;28;20089;-68
2020/12/24 03:24:30;;;;;;;5.60;1.60;;;9.40;99.90;;;;;;5012901;28;20085;-68
2020/12/24 03:26:57;;;;;;;9.02;1.73;;;9.30;99.90;;;;;;5013384;28;20053;-68
2020/12/24 03:29:24;;;;;;;4.50;1.40;;;9.10;99.90;;;;;;5013406;28;20054;-68
2020/12/24 03:31:53;;;;;;;2.92;1.15;;;9.10;99.90;;;;;;5013291;28;20475;-68
2020/12/24 03:34:19;;;;;;;7.80;2.28;;;9.10;99.90;;;;;;5013246;28;20128;-68
2020/12/24 03:36:46;;;;;;;6.60;1.60;;;9.00;99.90;;;;;;5013434;28;20060;-68
2020/12/24 03:39:12;;;;;;;7.38;1.92;;;9.00;99.90;;;;;;5012531;28;20058;-68
2020/12/24 03:41:39;;;;;;;8.93;1.30;;;9.00;99.90;;;;;;5013363;28;20054;-68
2020/12/24 03:44:06;;;;;;;8.60;2.22;;;9.00;99.90;;;;;;5012299;28;20143;-68
2020/12/24 03:46:35;;;;;;;4.85;1.38;;;9.00;99.90;;;;;;5013068;28;20081;-68
2020/12/24 03:49:02;;;;;;;;;;;9.00;99.90;;;;;;5013943;28;20491;-68
2020/12/24 03:51:28;;;;;;;7.18;1.60;;;9.00;99.90;;;;;;5013458;28;19921;-68
2020/12/24 03:53:55;;;;;;;7.47;1.83;;;9.00;99.90;;;;;;5013090;28;20510;-68
2020/12/24 03:56:21;;;;;;;3.70;1.92;;;9.00;99.90;;;;;;5013084;28;20085;-68
2020/12/24 03:58:48;;;;;;;7.50;1.70;;;9.10;99.90;;;;;;5012936;28;20089;-68
2020/12/24 04:01:14;;;;;;;6.50;1.27;;;9.00;99.90;;;;;;5013626;28;20065;-68
2020/12/24 04:03:42;;;;;;;10.13;1.83;;;8.90;99.90;;;;;;5013030;28;20077;-68
2020/12/24 04:06:08;;;;;;;7.88;1.67;;;8.80;99.90;;;;;;5013009;28;20462;-67
2020/12/24 04:08:35;;;;;;;9.85;1.88;;;8.60;99.90;;;;;;5012545;28;20129;-67
2020/12/24 04:11:01;;;;;;;10.40;2.05;;;8.50;99.90;;;;;;5012952;28;20124;-67
2020/12/24 04:13:28;;;;;;;6.78;1.60;;;8.40;99.90;;;;;;5012765;28;20050;-67
2020/12/24 04:15:55;;;;;;;6.68;1.67;;;8.40;99.90;;;;;;5012671;28;20069;-67
2020/12/24 04:18:24;;;;;;;9.65;2.40;;;8.40;99.90;;;;;;5012992;28;20057;-67
2020/12/24 04:20:51;;;;;;;4.25;1.48;;;8.40;99.90;;;;;;5012989;28;20057;-67
2020/12/24 04:23:18;;;;;;;9.38;2.13;;;8.30;99.90;;;;;;5012475;28;20078;-67
2020/12/24 04:25:47;;;;;;;10.25;2.10;;;8.30;99.90;;;;;;5012403;28;20062;-67
2020/12/24 04:28:13;;;;;;;6.17;2.13;;;8.30;99.90;;;;;;5013034;28;20491;-67
2020/12/24 04:30:42;;;;;;;7.20;1.70;;;8.30;99.90;;;;;;5012658;28;20092;-67
2020/12/24 04:33:09;;;;;;;11.40;1.75;;;8.30;99.90;;;;;;5012847;28;20046;-67
2020/12/24 04:35:36;;;;;;;6.20;1.85;;;8.40;99.90;;;;;;5012644;28;20064;-67
2020/12/24 04:38:03;;;;;;;6.30;1.58;;;8.40;99.90;;;;;;5012408;28;20100;-67
2020/12/24 04:40:30;;;;;;;9.32;1.73;;;8.50;99.90;;;;;;5012533;28;20049;-67
2020/12/24 04:42:57;;;;;;;9.98;2.30;;;8.50;99.90;;;;;;5012760;28;20132;-68
2020/12/24 04:45:26;;;;;;;8.18;1.75;;;8.50;99.90;;;;;;5012846;28;20096;-68
2020/12/24 04:47:57;;;;;;;11.50;1.90;;;8.50;99.90;;;;;;5012847;28;20046;-68
2020/12/24 04:50:26;;;;;;;8.93;1.65;;;8.60;99.90;;;;;;5012815;28;20054;-68
2020/12/24 04:52:54;;;;;;;5.40;1.77;;;8.70;99.90;;;;;;5012074;28;20145;-68
2020/12/24 04:55:22;;;;;;;7.03;1.60;;;8.70;99.90;;;;;;5014240;28;20049;-68
2020/12/24 04:57:49;;;;;;;9.90;1.98;;;8.80;99.90;;;;;;5016848;28;20090;-69
2020/12/24 05:00:17;;;;;;;6.03;1.90;;;8.90;99.90;;;;;;5017119;28;20158;-69
2020/12/24 05:02:43;;;;;;;8.25;1.52;;;8.90;99.90;;;;;;5016145;28;20487;-69
2020/12/24 05:05:10;;;;;;;6.18;1.70;;;8.90;99.90;;;;;;5015870;28;20050;-69
2020/12/24 05:07:41;;;;;;;12.73;2.50;;;9.00;99.90;;;;;;5016639;28;20144;-69
2020/12/24 05:10:13;;;;;;;8.15;1.90;;;9.00;99.90;;;;;;5014851;28;20061;-69
2020/12/24 05:12:41;;;;;;;5.60;1.52;;;9.00;99.90;;;;;;5015492;28;20092;-68
2020/12/24 05:15:07;;;;;;;6.18;1.75;;;9.00;99.90;;;;;;5015472;28;20050;-68
2020/12/24 05:17:34;;;;;;;5.60;1.50;;;8.90;99.90;;;;;;5015814;28;20050;-68
2020/12/24 05:20:01;;;;;;;6.65;1.50;;;8.90;99.90;;;;;;5015477;28;20049;-68
2020/12/24 05:22:28;;;;;;;3.97;1.40;;;8.90;99.90;;;;;;5015723;28;20466;-68
2020/12/24 05:25:06;;;;;;;5.47;1.88;;;8.90;99.90;;;;;;5015532;28;20053;-68
2020/12/24 05:27:33;;;;;;;4.90;1.55;;;8.90;99.90;;;;;;5015751;28;20495;-68
2020/12/24 05:30:00;;;;;;;7.85;1.95;;;8.80;99.90;;;;;;5015592;28;20487;-68
2020/12/24 05:32:28;;;;;;;3.50;1.30;;;8.80;99.90;;;;;;5015510;28;20086;-68
2020/12/24 05:35:08;;;;;;;7.28;1.60;;;8.80;99.90;;;;;;5015802;28;20085;-68
2020/12/24 05:37:35;;;;;;;4.13;1.17;;;8.70;99.90;;;;;;5016126;28;20120;-68
2020/12/24 05:40:20;;;;;;;6.20;1.50;;;8.60;99.90;;;;;;5014751;28;20057;-68
2020/12/24 05:42:48;;;;;;;6.30;1.48;;;8.50;99.90;;;;;;5015007;28;20050;-68
2020/12/24 05:45:16;;;;;;;8.18;1.60;;;8.50;99.90;;;;;;5014965;28;20057;-68
2020/12/24 05:47:44;;;;;;;7.05;1.80;;;8.50;99.90;;;;;;5015254;28;20407;-68
2020/12/24 05:50:24;;;;;;;7.18;2.40;;;8.60;99.90;;;;;;5015088;28;20140;-68
2020/12/24 05:53:04;;;;;;;10.95;2.72;;;8.60;99.90;;;;;;5014742;28;20056;-68
2020/12/24 05:55:31;;;;;;;6.68;1.58;;;8.60;99.90;;;;;;4995473;28;20092;-68
2020/12/24 05:57:59;;;;;;;10.23;1.48;;;8.70;99.90;;;;;;4995467;28;20054;-68
2020/12/24 06:00:32;;;;;;;8.82;1.90;;;8.70;99.90;;;;;;4995388;28;20054;-68
2020/12/24 06:03:13;;;;;;;7.82;1.90;;;8.70;99.90;;;;;;4994760;28;20046;-68
2020/12/24 06:06:12;;;;;;;7.03;1.95;;;8.70;99.90;;;;;;5005771;28;20085;-68
2020/12/24 06:08:46;;;;;;;6.25;1.65;;;8.70;99.90;;;;;;4982228;28;20060;-68
2020/12/24 06:11:13;;;;;;;4.50;2.38;;;8.80;99.90;;;;;;5013743;28;20502;-68
2020/12/24 06:13:44;;;;;;;5.65;2.00;;;8.80;99.90;;;;;;5014021;28;20052;-68
2020/12/24 06:16:13;;;;;;;8.52;1.85;;;8.70;99.90;;;;;;5014139;28;20050;-68
2020/12/24 06:18:40;;;;;;;10.38;2.05;;;8.80;99.90;;;;;;5013221;28;20503;-68
2020/12/24 06:21:15;;;;;;;5.32;1.60;;;8.80;99.90;;;;;;4995146;28;20511;-68
2020/12/24 06:23:49;;;;;;;7.95;2.45;;;8.70;99.90;;;;;;5001666;28;20049;-68
2020/12/24 06:26:21;;;;;;;6.70;1.60;;;8.70;99.90;;;;;;5014281;28;20054;-68
2020/12/24 06:28:54;;;;;;;11.85;2.15;;;8.70;99.90;;;;;;5013855;28;20096;-68
2020/12/24 06:31:24;;;;;;;7.22;1.80;;;8.60;99.90;;;;;;5004750;28;20053;-68
2020/12/24 06:33:51;;;;;;;5.32;2.47;;;8.60;99.90;;;;;;5013309;28;20445;-68
2020/12/24 06:36:38;;;;;;;6.22;1.50;;;8.50;99.90;;;;;;5013640;28;20056;-68
2020/12/24 06:39:07;;;;;;;7.00;1.60;;;8.60;99.90;;;;;;5014270;28;20054;-68
2020/12/24 06:41:36;;;;;;;9.03;2.17;;;8.60;99.90;;;;;;5013878;28;20449;-68
2020/12/24 06:44:03;;;;;;;7.47;1.95;;;8.60;99.90;;;;;;5014532;28;20481;-68
2020/12/24 06:46:57;;;;;;;8.48;2.20;;;8.70;99.90;;;;;;5013492;28;20117;-68
2020/12/24 06:49:29;;;;;;;5.45;2.00;;;8.60;99.90;;;;;;5013688;28;20104;-68
2020/12/24 06:51:55;;;;;;;7.78;2.08;;;8.70;99.90;;;;;;5013865;28;20467;-68
2020/12/24 06:54:24;;;;;;;6.35;2.00;;;8.70;99.90;;;;;;5013887;28;20085;-68
2020/12/24 06:57:11;;;;;;;10.85;2.60;;;8.70;99.90;;;;;;5014120;28;20402;-68
2020/12/24 06:59:37;;;;;;;5.90;2.22;;;8.60;99.90;;;;;;5012946;28;20155;-68
2020/12/24 07:02:05;;;;;;;10.75;2.00;;;8.70;99.90;;;;;;5013621;28;20085;-68
2020/12/24 07:04:39;;;;;;;6.53;1.90;;;8.70;99.90;;;;;;5013409;28;20523;-68
2020/12/24 07:07:07;;;;;;;8.57;1.80;;;8.80;99.90;;;;;;5012806;28;20077;-68
2020/12/24 07:09:46;;;;;;;11.27;2.60;;;8.70;99.90;;;;;;5013537;28;20052;-68
2020/12/24 07:12:32;;;;;;;7.53;1.80;;;8.50;99.90;;;;;;5013509;28;20050;-68
2020/12/24 07:15:23;;;;;;;5.72;2.05;;;8.50;99.90;;;;;;5012596;28;20471;-67
2020/12/24 07:17:55;;;;;;;8.77;2.38;;;8.50;99.90;;;;;;5013542;28;20056;-68
2020/12/24 07:20:24;;;;;;;6.18;1.90;;;8.50;99.90;;;;;;5013433;28;20046;-68
2020/12/24 07:22:54;;;;;;;7.35;2.25;;;8.60;99.90;;;;;;5013798;28;20077;-68
2020/12/24 07:25:20;;;;;;;;;;;8.60;99.90;;;;;;5013572;28;20050;-68
2020/12/24 07:27:51;;;;;;;5.72;2.00;;;8.60;99.90;;;;;;5013078;28;19927;-68
2020/12/24 07:30:22;;;;;;;7.03;2.13;;;8.80;99.90;;;;;;5013563;28;20054;-68
2020/12/24 07:32:58;;;;;;;9.00;2.78;;;8.80;99.90;;;;;;5013244;28;20057;-68
2020/12/24 07:35:25;;;;;;;10.60;2.20;;;8.80;99.90;;;;;;5012966;28;20415;-67
2020/12/24 07:37:52;;;;;;;6.47;2.75;;;8.90;99.90;;;;;;5012783;28;20045;-67
2020/12/24 07:40:19;;;;;;;9.40;2.38;;;9.10;99.90;;;;;;5012498;28;20060;-67
2020/12/24 07:42:46;;;;;;;7.30;2.40;;;9.10;99.90;;;;;;5012375;28;20073;-67
2020/12/24 07:45:22;;;;;;;6.38;2.65;;;9.20;99.90;;;;;;5013071;28;20050;-67
2020/12/24 07:47:49;;;;;;;6.10;2.40;;;9.20;99.90;;;;;;5012512;28;20056;-67
2020/12/24 07:50:28;;;;;;;8.07;3.15;;;9.20;99.90;;;;;;5012543;28;20046;-67
2020/12/24 07:52:54;;;;;;;4.68;2.13;;;9.30;99.90;;;;;;5012644;28;20077;-67
2020/12/24 07:55:21;;;;;;;6.80;2.00;;;9.40;99.90;;;;;;5013104;28;20042;-67
2020/12/24 07:57:48;;;;;;;4.80;1.92;;;9.50;99.90;;;;;;5011616;28;20046;-67
2020/12/24 08:00:14;;;;;;;4.55;1.88;;;9.50;99.90;;;;;;5013291;28;20057;-67
2020/12/24 08:02:41;;;;;;;4.55;1.98;;;9.50;99.90;;;;;;5013278;28;20148;-67
2020/12/24 08:05:07;;;;;;;3.20;1.45;;;9.10;99.90;;;;;;5010574;28;20042;-67
2020/12/24 08:07:35;;;;;;;1.95;1.20;;;8.60;99.90;;;;;;5012697;28;20049;-67
2020/12/24 08:10:09;;;;;;;1.65;1.00;;;8.20;99.90;;;;;;5012957;28;20053;-67
2020/12/24 08:12:36;;;;;;;2.05;1.30;;;8.50;99.90;;;;;;5012591;28;20046;-68
2020/12/24 08:15:12;;;;;;;3.10;1.40;;;7.50;99.90;;;;;;5012949;28;20127;-68
2020/12/24 08:17:46;;;;;;;2.67;1.55;;;7.60;99.90;;;;;;5012680;28;20054;-68
2020/12/24 08:20:15;;;;;;;2.30;1.80;;;7.70;99.90;;;;;;5012678;28;20479;-68
2020/12/24 08:22:50;;;;;;;2.25;1.80;;;7.50;99.90;;;;;;5012256;28;20085;-68
2020/12/24 08:25:19;;;;;;;3.15;2.10;;;7.40;99.90;;;;;;5010071;28;20093;-68
2020/12/24 08:27:47;;;;;;;1.75;1.45;;;7.30;99.90;;;;;;5012716;28;20095;-68
2020/12/24 08:30:15;;;;;;;2.50;2.08;;;7.00;99.90;;;;;;5014749;28;20053;-68
2020/12/24 08:32:42;;;;;;;3.35;2.60;;;7.00;99.90;;;;;;5015923;28;20411;-68
2020/12/24 08:35:10;;;;;;;3.40;2.40;;;7.10;99.90;;;;;;5015609;28;20495;-68
2020/12/24 08:37:36;;;;;;;2.75;2.45;;;6.90;99.90;;;;;;5013863;28;20387;-68
2020/12/24 08:40:19;;;;;;;2.60;2.00;;;6.60;99.90;;;;;;5013934;28;20062;-68
2020/12/24 08:42:47;;;;;;;2.50;2.08;;;6.50;99.90;;;;;;5014663;28;20050;-68
2020/12/24 08:45:14;;;;;;;2.58;2.17;;;6.50;99.90;;;;;;5015865;28;20057;-68
2020/12/24 08:47:41;;;;;;;2.97;2.45;;;6.60;99.90;;;;;;5016014;28;20481;-68
2020/12/24 08:50:08;;;;;;;3.55;2.72;;;6.50;99.90;;;;;;5015241;28;20078;-68
2020/12/24 08:52:36;;;;;;;5.43;4.38;;;6.80;99.90;;;;;;5016035;28;20050;-68
2020/12/24 08:55:05;;;;;;;4.00;3.60;;;6.60;99.90;;;;;;5015801;28;20093;-68
2020/12/24 08:57:33;;;;;;;4.60;3.95;;;6.60;99.90;;;;;;5015365;28;20104;-68
2020/12/24 09:00:01;;;;;;;2.88;2.13;;;6.50;99.90;;;;;;5015219;28;20081;-68
2020/12/24 09:02:29;;;;;;;3.97;2.38;;;6.40;99.90;;;;;;5015137;28;20046;-68
2020/12/24 09:04:57;;;;;;;2.40;1.90;;;6.30;99.90;;;;;;5015474;28;20045;-68
2020/12/24 09:07:28;;;;;;;2.53;1.85;;;6.60;99.90;;;;;;5016000;28;20068;-68
2020/12/24 09:10:03;;;;;;;3.90;2.20;;;6.70;99.90;;;;;;5015543;28;20053;-68
2020/12/24 09:12:30;;;;;;;3.35;2.30;;;6.90;99.90;;;;;;5015724;28;20049;-68
2020/12/24 09:15:01;;;;;;;2.67;1.80;;;6.90;99.90;;;;;;5012968;28;20069;-68
2020/12/24 09:17:28;;;;;;;3.20;2.22;;;6.90;99.90;;;;;;5015216;28;20088;-44
2020/12/24 09:20:11;;;;;;;2.83;1.85;;;7.00;99.90;;;;;;5014535;28;20085;-45
2020/12/24 09:22:49;;;;;;;2.35;1.67;;;6.80;99.90;;;;;;5011418;28;20523;-69
2020/12/24 09:25:28;;;;;;;3.10;1.90;;;7.10;99.90;;;;;;5007504;28;20088;-68
2020/12/24 09:27:55;;;;;;;3.38;1.88;;;7.30;99.90;;;;;;5015722;28;20109;-68
2020/12/24 09:30:25;;;;;;;2.90;1.88;;;7.30;99.90;;;;;;5016618;28;20052;-68
2020/12/24 09:32:55;;;;;;;5.18;2.47;;;7.30;99.90;;;;;;5016343;28;20046;-68
2020/12/24 09:35:27;;;;;;;11.90;6.40;;;7.50;99.90;;;;;;5016061;28;20045;-68
2020/12/24 09:37:55;;;;;;;15.13;8.48;;;7.50;99.90;;;;;;5016417;28;20092;-68
2020/12/24 09:40:22;;;;;;;5.05;3.30;;;7.50;99.90;;;;;;5015323;28;20506;-68
2020/12/24 09:42:49;;;;;;;4.32;2.97;;;7.30;99.90;;;;;;5015364;28;20057;-68
2020/12/24 09:45:16;;;;;;;8.20;4.30;;;7.40;99.90;;;;;;5017955;28;20052;-68
2020/12/24 09:47:45;;;;;;;6.38;4.63;;;7.50;99.90;;;;;;5017301;28;20046;-68
2020/12/24 09:50:12;;;;;;;3.67;2.20;;;7.60;99.90;;;;;;5016442;28;20074;-68
2020/12/24 09:52:41;;;;;;;5.82;4.25;;;7.50;99.90;;;;;;5014712;28;20050;-68
2020/12/24 09:55:08;;;;;;;9.98;6.60;;;7.60;99.90;;;;;;5015230;28;20060;-68
2020/12/24 09:57:35;;;;;;;2.63;2.08;;;7.30;99.90;;;;;;5015988;28;20042;-68
2020/12/24 10:00:04;;;;;;;4.90;3.08;;;7.50;99.90;;;;;;5016147;28;20085;-68
2020/12/24 10:02:30;;;;;;;3.63;2.50;;;7.60;99.90;;;;;;5015963;28;20057;-68
2020/12/24 10:05:00;;;;;;;3.45;2.30;;;7.50;99.90;;;;;;5014874;28;20046;-68
2020/12/24 10:07:27;;;;;;;7.97;4.50;;;7.40;99.90;;;;;;5016353;28;20054;-68
2020/12/24 10:09:54;;;;;;;2.90;2.40;;;7.60;99.90;;;;;;5015082;28;20050;-68
2020/12/24 10:12:21;;;;;;;4.28;3.28;;;7.50;99.90;;;;;;5014098;28;20112;-68
2020/12/24 10:14:48;;;;;;;3.88;2.53;;;7.60;99.90;;;;;;5015433;28;20057;-69
2020/12/24 10:17:15;;;;;;;2.80;2.25;;;7.50;99.90;;;;;;5015779;28;20081;-68
2020/12/24 10:19:43;;;;;;;3.50;2.40;;;7.60;99.90;;;;;;5016022;28;20506;-68
2020/12/24 10:22:11;;;;;;;3.25;2.40;;;7.70;99.90;;;;;;5015258;28;20049;-68
2020/12/24 10:24:38;;;;;;;3.03;2.20;;;7.70;99.90;;;;;;5014263;28;20053;-68
2020/12/24 10:27:05;;;;;;;1.95;1.48;;;7.70;99.90;;;;;;5015402;28;20475;-69
2020/12/24 10:29:34;;;;;;;2.63;1.88;;;7.90;99.90;;;;;;5015146;28;20499;-68
2020/12/24 10:32:00;;;;;;;3.77;2.83;;;8.00;99.90;;;;;;5002970;28;20050;-69
2020/12/24 10:34:27;;;;;;;3.67;2.22;;;8.00;99.90;;;;;;5015118;28;20461;-69
2020/12/24 10:36:56;;;;;;;4.22;3.20;;;8.10;99.90;;;;;;5015032;28;20100;-69
2020/12/24 10:39:23;;;;;;;7.85;6.45;;;8.20;99.90;;;;;;5014377;28;20050;-69
2020/12/24 10:41:51;;;;;;;5.35;4.10;;;8.00;99.90;;;;;;5014713;28;20061;-69
2020/12/24 10:44:18;;;;;;;5.45;4.47;;;8.10;99.90;;;;;;5015675;28;20085;-69
2020/12/24 10:46:45;;;;;;;5.00;3.95;;;8.10;99.90;;;;;;5015161;28;20129;-68
2020/12/24 10:49:12;;;;;;;11.73;8.85;;;8.00;99.90;;;;;;5014889;28;20050;-69
2020/12/24 10:51:41;;;;;;;8.45;6.80;;;8.10;99.90;;;;;;5014890;28;20056;-69
2020/12/24 10:54:08;;;;;;;14.27;9.82;;;8.00;99.90;;;;;;5013915;28;20046;-69
2020/12/24 10:56:38;;;;;;;9.90;8.95;;;8.00;99.90;;;;;;5014131;28;20486;-68
2020/12/24 10:59:04;;;;;;;4.00;3.25;;;8.00;99.90;;;;;;4997222;28;20076;-69
2020/12/24 11:01:31;;;;;;;2.08;1.80;;;7.90;99.90;;;;;;5007745;28;20483;-69
2020/12/24 11:03:58;;;;;;;2.67;2.30;;;7.90;99.90;;;;;;5014452;28;20053;-68
2020/12/24 11:06:27;;;;;;;2.80;2.20;;;8.00;99.90;;;;;;5013115;28;20080;-68
2020/12/24 11:08:54;;;;;;;3.22;2.47;;;7.60;99.90;;;;;;5015308;28;20430;-69
2020/12/24 11:11:20;;;;;;;3.45;2.83;;;7.70;99.90;;;;;;5014248;28;20051;-69
2020/12/24 11:13:48;;;;;;;3.30;2.90;;;7.70;99.90;;;;;;5014408;28;20050;-69
2020/12/24 11:16:22;;;;;;;4.25;3.03;;;7.70;99.90;;;;;;5014577;28;20058;-68
2020/12/24 11:18:48;;;;;;;3.60;2.90;;;7.50;99.90;;;;;;5014197;28;20089;-68
2020/12/24 11:21:15;;;;;;;3.42;2.67;;;7.70;99.90;;;;;;5013584;28;20120;-68
2020/12/24 11:23:42;;;;;;;3.15;2.63;;;7.90;99.90;;;;;;5014673;28;20049;-68
2020/12/24 11:26:09;;;;;;;6.00;5.40;;;7.90;99.90;;;;;;5014508;28;20054;-69
2020/12/24 11:28:36;;;;;;;6.50;5.80;;;7.90;99.90;;;;;;5013459;28;20392;-68
2020/12/24 11:31:03;;;;;;;12.05;8.05;;;7.70;99.90;;;;;;5010288;28;20054;-68
2020/12/24 11:33:30;;;;;;;18.23;11.15;;;7.60;99.90;;;;;;5012937;28;20054;-68
2020/12/24 11:35:56;;;;;;;20.25;12.98;;;7.50;99.90;;;;;;5013140;28;20058;-68
2020/12/24 11:38:25;;;;;;;24.10;15.15;;;7.40;99.90;;;;;;5012803;28;20053;-68
2020/12/24 11:40:54;;;;;;;24.77;15.60;;;7.30;99.90;;;;;;5007419;28;20108;-68
2020/12/24 11:43:20;;;;;;;24.70;16.45;;;7.20;99.90;;;;;;5011182;28;20456;-67
2020/12/24 11:45:49;;;;;;;20.35;13.70;;;7.30;99.90;;;;;;5012359;28;20088;-68
2020/12/24 11:48:19;;;;;;;22.08;14.02;;;7.30;99.90;;;;;;5013755;28;20111;-68
2020/12/24 11:50:46;;;;;;;19.65;13.50;;;7.40;99.90;;;;;;5012699;28;20089;-68
2020/12/24 11:53:13;;;;;;;18.45;12.40;;;7.50;99.90;;;;;;5012749;28;20454;-68
2020/12/24 11:55:39;;;;;;;15.32;10.60;;;7.40;99.90;;;;;;5011609;28;20104;-68
2020/12/24 11:58:06;;;;;;;11.93;9.02;;;7.50;99.90;;;;;;5012816;28;20546;-68
2020/12/24 12:00:32;;;;;;;12.55;9.38;;;7.50;99.90;;;;;;5011518;28;20076;-68
2020/12/24 12:02:59;;;;;;;7.72;5.78;;;7.50;99.90;;;;;;5011552;28;20089;-68
2020/12/24 12:05:27;;;;;;;9.27;7.03;;;7.60;99.90;;;;;;5013837;28;20065;-68
2020/12/24 12:07:53;;;;;;;12.30;7.82;;;7.50;99.90;;;;;;5016825;28;20057;-68
2020/12/24 12:10:20;;;;;;;10.35;8.50;;;7.40;99.90;;;;;;5016976;28;20506;-68
2020/12/24 12:12:46;;;;;;;9.30;8.32;;;7.40;99.90;;;;;;5016754;28;20061;-67
2020/12/24 12:15:14;;;;;;;9.88;8.57;;;7.50;99.90;;;;;;5015728;28;20103;-68
2020/12/24 12:17:41;;;;;;;9.02;8.07;;;7.60;99.90;;;;;;5016604;28;20046;-68
2020/12/24 12:20:08;;;;;;;8.30;7.22;;;7.50;99.90;;;;;;5016327;28;20119;-68
2020/12/24 12:22:35;;;;;;;8.48;7.57;;;7.20;99.90;;;;;;5015726;28;20077;-68
2020/12/24 12:25:02;;;;;;;8.35;7.40;;;7.40;99.90;;;;;;5015774;28;20041;-68
2020/12/24 12:27:28;;;;;;;7.75;6.57;;;7.50;99.90;;;;;;5016676;28;20045;-68
2020/12/24 12:29:55;;;;;;;7.10;6.38;;;7.50;99.90;;;;;;5015700;28;20139;-68
2020/12/24 12:32:21;;;;;;;7.10;6.40;;;7.50;99.90;;;;;;5015260;28;20042;-68
2020/12/24 12:34:48;;;;;;;8.18;6.20;;;7.50;99.90;;;;;;5015875;28;20045;-68
2020/12/24 12:37:17;;;;;;;6.00;5.32;;;7.50;99.90;;;;;;5015086;28;20046;-68
2020/12/24 12:39:44;;;;;;;7.35;5.25;;;7.60;99.90;;;;;;5015725;28;20129;-68
2020/12/24 12:42:10;;;;;;;5.03;4.32;;;7.60;99.90;;;;;;5015700;28;20127;-68
2020/12/24 12:44:37;;;;;;;5.20;4.28;;;7.50;99.90;;;;;;5015265;28;20491;-68
2020/12/24 12:47:06;;;;;;;6.50;4.25;;;7.50;99.90;;;;;;5015464;28;20069;-68
2020/12/24 12:49:33;;;;;;;5.05;4.55;;;7.50;99.90;;;;;;5015407;28;20046;-68
2020/12/24 12:52:01;;;;;;;4.88;4.38;;;7.50;99.90;;;;;;5014101;28;20050;-68
2020/12/24 12:54:28;;;;;;;6.03;4.22;;;7.60;99.90;;;;;;5006527;28;20140;-68
2020/12/24 12:56:55;;;;;;;5.90;3.90;;;7.70;99.90;;;;;;5014934;28;20050;-68
2020/12/24 12:59:22;;;;;;;5.82;3.85;;;7.70;99.90;;;;;;5015808;28;20085;-68
2020/12/24 13:01:52;;;;;;;6.15;4.00;;;7.70;99.90;;;;;;5014694;28;20069;-68